LPFL/FLW METAR and TAF weather

Enter ICAO airport designator
Station Type Date Time Source
LPFL METAR 2020/09/21 10:00 UTC NOAA

LPFL 211000Z 01011KT 9999 SCT022 FEW023TCU BKN045 20/16 Q1021


Station Type Date Time Source
LPFL Decoded METAR 2020/09/21 10:00 UTC NOAA

Flores Acores , Portugal (LPFL) 39-27N 031-08W 29M
Sep 21, 2020 - 06:00 AM EDT / 2020.09.21 1000 UTC
Wind: from the N (010 degrees) at 13 MPH (11 KT):0
Visibility: greater than 7 mile(s):0
Sky conditions: mostly cloudy
Weather: Towering cumulus clouds observed
Temperature: 68 F (20 C)
Dew Point: 60 F (16 C)
Relative Humidity: 77%
Pressure (altimeter): 30.15 in. Hg (1021 hPa)
ob: LPFL 211000Z 01011KT 9999 SCT022 FEW023TCU BKN045 20/16 Q1021
cycle: 10

Station Type Date Time Source
LPFL TAF UTC NOAA

Error!

Example: see airport list